Greystone, Colorado
Current Conditions -  °F | °C
As of 11:53 AM on Sunday 23 Nov 2014 (Local Time) from KVEL Reporting Station
Clear Clear  
Wind Chill: 32°   Ceiling: Unl
Heat Index: 40°   Visibility: 10mi
Dew Point: 13°   Wind: 14mph
Humidity: 33%   Direction: 320°NW
Pressure: 30.03"   Gusts: NA
Location:  40.7245°N, 108.541°W
Report Text: KVEL 231853Z AUTO 32012KT 10SM CLR 04/M11 A3003 RMK AO2 PK WND 34032/1820 SLP173 T00441106
Loading
Personal Weather Stations






























Interactive Weather Map New forecast layout! Learn more

10-Day Weather Forecast

Advertisements
Track Severe Weather on mobile